Time;durP1;ratioP1;P1;durP2;ratioP2;P2;SDS_P1;SDS_P2;PMS_P1;PMS_P2;Temp;Humidity;BMP_temperature;BMP_pressure;BME280_temperature;BME280_humidity;BME280_pressure;Samples;Min_cycle;Max_cycle;Signal;HPM_P1;HPM_P2
2024/01/09 00:00:05;;;;;;;5.70;3.78;;;;;;;-4.43;100.00;103925.31;4931748;29;20228;-41
2024/01/09 00:02:30;;;;;;;5.80;3.90;;;;;;;-4.38;100.00;103926.56;4930926;29;20666;-45
2024/01/09 00:04:56;;;;;;;7.97;4.18;;;;;;;-4.32;100.00;103920.88;4929882;29;20226;-43
2024/01/09 00:07:21;;;;;;;6.53;4.20;;;;;;;-4.36;100.00;103916.22;4931024;29;20254;-39
2024/01/09 00:09:47;;;;;;;7.47;4.70;;;;;;;-4.27;100.00;103919.47;4930956;29;20209;-44
2024/01/09 00:12:13;;;;;;;9.95;5.78;;;;;;;-4.24;100.00;103918.78;4931955;29;20219;-41
2024/01/09 00:14:39;;;;;;;8.32;4.50;;;;;;;-4.21;100.00;103914.69;4930788;29;20318;-41
2024/01/09 00:17:04;;;;;;;8.27;5.25;;;;;;;-4.10;100.00;103912.84;4934885;29;20179;-41
2024/01/09 00:19:30;;;;;;;6.38;3.70;;;;;;;-4.01;100.00;103912.59;4932517;29;20231;-40
2024/01/09 00:21:55;;;;;;;9.05;4.63;;;;;;;-4.02;100.00;103911.69;4933649;29;20257;-42
2024/01/09 00:24:21;;;;;;;5.85;4.30;;;;;;;-3.94;100.00;103910.53;4930901;29;20199;-44
2024/01/09 00:26:47;;;;;;;9.48;5.13;;;;;;;-3.91;100.00;103914.16;4930214;29;20219;-42
2024/01/09 00:29:12;;;;;;;8.77;4.25;;;;;;;-3.84;100.00;103900.72;4932923;29;20211;-43
2024/01/09 00:31:38;;;;;;;7.30;5.03;;;;;;;-3.78;100.00;103915.16;4931803;29;20206;-42
2024/01/09 00:34:03;;;;;;;6.28;5.05;;;;;;;-3.75;100.00;103910.09;4932732;29;20207;-41
2024/01/09 00:36:29;;;;;;;6.30;5.07;;;;;;;-3.65;100.00;103906.44;4931945;29;20536;-41
2024/01/09 00:38:54;;;;;;;10.02;5.47;;;;;;;-3.59;100.00;103913.78;4929880;29;20690;-42
2024/01/09 00:41:20;;;;;;;5.72;4.63;;;;;;;-3.56;100.00;103906.16;4930337;29;20540;-42
2024/01/09 00:43:46;;;;;;;6.85;5.10;;;;;;;-3.51;100.00;103912.63;4916082;29;20199;-41
2024/01/09 00:46:12;;;;;;;8.88;4.20;;;;;;;-3.47;100.00;103911.13;4930932;29;20211;-41
2024/01/09 00:48:37;;;;;;;7.55;4.88;;;;;;;-3.57;100.00;103913.09;4930389;29;20290;-44
2024/01/09 00:51:03;;;;;;;8.68;5.07;;;;;;;-3.49;100.00;103916.25;4931516;29;20651;-43
2024/01/09 00:53:29;;;;;;;7.85;5.20;;;;;;;-3.45;100.00;103905.19;4931411;29;20179;-42
2024/01/09 00:55:55;;;;;;;7.43;4.85;;;;;;;-3.40;100.00;103908.13;4931884;29;20863;-44
2024/01/09 00:58:21;;;;;;;6.80;4.60;;;;;;;-3.35;100.00;103909.34;4935031;29;20187;-43
2024/01/09 01:00:46;;;;;;;8.20;4.97;;;;;;;-3.36;100.00;103907.53;4937384;29;20377;-43
2024/01/09 01:03:12;;;;;;;6.43;4.97;;;;;;;-3.32;100.00;103913.09;4932505;29;20187;-44
2024/01/09 01:05:38;;;;;;;7.50;4.90;;;;;;;-3.36;100.00;103916.31;4933389;29;20266;-42
2024/01/09 01:08:04;;;;;;;9.00;5.20;;;;;;;-3.27;100.00;103904.63;4933702;29;20187;-42
2024/01/09 01:10:29;;;;;;;6.03;4.60;;;;;;;-3.22;100.00;103897.97;4933459;29;20243;-42
2024/01/09 01:12:55;;;;;;;7.40;4.75;;;;;;;-3.19;100.00;103916.53;4933620;29;20586;-44
2024/01/09 01:15:20;;;;;;;6.75;5.10;;;;;;;-3.21;100.00;103902.44;4933224;29;20215;-42
2024/01/09 01:17:46;;;;;;;10.30;5.10;;;;;;;-3.10;100.00;103904.06;4935489;29;20187;-42
2024/01/09 01:20:11;;;;;;;9.18;5.13;;;;;;;-3.17;100.00;103902.75;4934300;29;20206;-42
2024/01/09 01:22:37;;;;;;;7.97;5.05;;;;;;;-3.11;100.00;103899.59;4934101;29;20176;-42
2024/01/09 01:25:03;;;;;;;10.00;4.88;;;;;;;-3.22;100.00;103904.13;4933106;29;20686;-41
2024/01/09 01:27:28;;;;;;;6.93;5.25;;;;;;;-3.14;100.00;103909.91;4932080;29;20187;-43
2024/01/09 01:29:54;;;;;;;7.80;4.63;;;;;;;-3.12;100.00;103900.44;4935462;29;20199;-44
2024/01/09 01:32:20;;;;;;;10.70;5.25;;;;;;;-3.15;100.00;103903.75;4934116;29;20253;-44
2024/01/09 01:34:46;;;;;;;11.25;5.32;;;;;;;-3.06;100.00;103887.75;4934530;29;20195;-40
2024/01/09 01:37:11;;;;;;;8.23;4.75;;;;;;;-3.03;100.00;103887.03;4933135;29;20198;-42
2024/01/09 01:39:37;;;;;;;8.02;5.20;;;;;;;-3.14;100.00;103889.81;4933679;29;20554;-43
2024/01/09 01:42:03;;;;;;;8.07;4.40;;;;;;;-3.03;100.00;103887.03;4933189;29;20183;-40
2024/01/09 01:44:28;;;;;;;8.13;4.43;;;;;;;-2.98;100.00;103897.00;4933151;29;20704;-40
2024/01/09 01:46:54;;;;;;;6.50;4.75;;;;;;;-2.96;100.00;103887.53;4933554;29;20622;-42
2024/01/09 01:49:21;;;;;;;6.38;4.78;;;;;;;-2.97;100.00;103896.22;4932969;29;20183;-41
2024/01/09 01:51:49;;;;;;;5.65;4.13;;;;;;;-3.04;100.00;103888.75;4933114;29;20196;-42
2024/01/09 01:54:16;;;;;;;6.30;4.32;;;;;;;-3.00;100.00;103885.50;4932248;29;20203;-42
2024/01/09 01:56:42;;;;;;;5.55;4.18;;;;;;;-2.99;100.00;103889.06;4932135;29;20546;-45
2024/01/09 01:59:15;;;;;;;6.45;4.45;;;;;;;-2.91;100.00;103888.75;4932556;29;20179;-41
2024/01/09 02:01:43;;;;;;;5.90;4.68;;;;;;;-2.92;100.00;103879.06;4933840;29;20250;-44
2024/01/09 02:04:09;;;;;;;6.85;5.18;;;;;;;-2.87;100.00;103889.84;4930484;29;20242;-43
2024/01/09 02:06:37;;;;;;;8.60;4.32;;;;;;;-2.99;100.00;103883.81;4931296;29;20211;-43
2024/01/09 02:09:03;;;;;;;4.70;3.95;;;;;;;-2.86;100.00;103886.44;4933067;29;20441;-42
2024/01/09 02:11:28;;;;;;;7.18;4.40;;;;;;;-2.77;100.00;103870.38;4932563;29;20179;-43
2024/01/09 02:13:54;;;;;;;5.68;4.60;;;;;;;-2.78;100.00;103894.78;4931669;29;20737;-42
2024/01/09 02:16:20;;;;;;;9.60;4.63;;;;;;;-2.83;100.00;103890.97;4927962;29;20195;-42
2024/01/09 02:18:45;;;;;;;7.82;4.93;;;;;;;-2.72;100.00;103882.09;4931456;29;20227;-44
2024/01/09 02:21:11;;;;;;;5.53;4.10;;;;;;;-2.64;100.00;103875.63;4931858;29;20615;-43
2024/01/09 02:23:36;;;;;;;5.00;3.30;;;;;;;-2.52;100.00;103886.91;4929559;29;20195;-43
2024/01/09 02:26:03;;;;;;;4.05;3.03;;;;;;;-2.49;100.00;103875.72;4931046;29;20706;-44
2024/01/09 02:28:47;;;;;;;4.95;3.30;;;;;;;-2.46;100.00;103875.91;4931101;29;20191;-41
2024/01/09 02:31:13;;;;;;;4.28;2.90;;;;;;;-2.46;100.00;103883.78;4931634;29;20538;-42
2024/01/09 02:33:39;;;;;;;7.50;3.80;;;;;;;-2.42;100.00;103869.16;4931048;29;20685;-40
2024/01/09 02:36:05;;;;;;;5.22;3.85;;;;;;;-2.41;100.00;103874.47;4931085;29;20223;-41
2024/01/09 02:38:30;;;;;;;5.40;3.65;;;;;;;-2.40;100.00;103857.94;4930724;29;20191;-42
2024/01/09 02:40:56;;;;;;;7.13;3.97;;;;;;;-2.38;100.00;103866.81;4931140;29;20690;-42
2024/01/09 02:43:21;;;;;;;5.60;4.03;;;;;;;-2.35;100.00;103866.09;4931839;29;20179;-42
2024/01/09 02:45:47;;;;;;;5.05;2.97;;;;;;;-2.37;100.00;103865.97;4930504;29;20748;-40
2024/01/09 02:48:12;;;;;;;5.03;3.00;;;;;;;-2.24;100.00;103869.41;4931047;29;20179;-41
2024/01/09 02:50:38;;;;;;;2.97;2.53;;;;;;;-2.27;100.00;103870.13;4931216;29;20195;-43
2024/01/09 02:53:03;;;;;;;2.80;2.60;;;;;;;-2.26;100.00;103861.41;4930626;29;20195;-42
2024/01/09 02:55:29;;;;;;;6.38;2.92;;;;;;;-2.27;100.00;103857.00;4930582;29;20222;-42
2024/01/09 02:57:54;;;;;;;4.28;2.33;;;;;;;-2.27;100.00;103859.63;4930491;29;20190;-41
2024/01/09 03:00:20;;;;;;;5.03;2.58;;;;;;;-2.25;100.00;103847.50;4930888;29;20619;-39
2024/01/09 03:02:45;;;;;;;5.95;2.85;;;;;;;-2.26;100.00;103860.53;4930569;29;20278;-44
2024/01/09 03:05:11;;;;;;;3.10;2.50;;;;;;;-2.20;100.00;103855.66;4931087;29;20218;-41
2024/01/09 03:07:36;;;;;;;4.45;2.80;;;;;;;-2.19;100.00;103861.00;4930692;29;20526;-42
2024/01/09 03:10:02;;;;;;;6.15;3.13;;;;;;;-2.17;100.00;103851.50;4930144;29;20207;-42
2024/01/09 03:12:27;;;;;;;6.43;2.65;;;;;;;-2.20;100.00;103840.81;4931289;29;20179;-41
2024/01/09 03:14:53;;;;;;;4.28;2.30;;;;;;;-2.19;100.00;103841.69;4930294;29;20221;-41
2024/01/09 03:17:19;;;;;;;4.60;2.88;;;;;;;-2.20;100.00;103838.19;4930815;29;20299;-41
2024/01/09 03:19:45;;;;;;;4.65;2.80;;;;;;;-2.21;100.00;103838.06;4930307;29;20251;-41
2024/01/09 03:22:11;;;;;;;3.20;2.85;;;;;;;-2.22;100.00;103841.53;4930335;29;20616;-41
2024/01/09 03:24:36;;;;;;;3.38;2.75;;;;;;;-2.19;100.00;103847.84;4930549;29;20258;-42
2024/01/09 03:27:03;;;;;;;4.03;2.58;;;;;;;-2.20;100.00;103837.28;4921617;29;20223;-42
2024/01/09 03:29:29;;;;;;;3.05;2.70;;;;;;;-2.21;100.00;103828.47;4930750;29;20195;-41
2024/01/09 03:31:54;;;;;;;3.85;2.90;;;;;;;-2.20;100.00;103834.66;4930566;29;20191;-44
2024/01/09 03:34:20;;;;;;;6.47;3.10;;;;;;;-2.21;100.00;103827.56;4930840;29;20203;-43
2024/01/09 03:36:45;;;;;;;4.07;3.15;;;;;;;-2.23;100.00;103823.94;4931281;29;20282;-41
2024/01/09 03:39:14;;;;;;;3.78;2.72;;;;;;;-2.31;100.00;103810.34;4930868;29;20599;-43
2024/01/09 03:41:42;;;;;;;3.65;3.03;;;;;;;-2.26;100.00;103819.41;4931243;29;20564;-40
2024/01/09 03:44:12;;;;;;;3.13;2.83;;;;;;;-2.24;100.00;103814.25;4928784;29;20535;-40
2024/01/09 03:46:38;;;;;;;4.35;2.70;;;;;;;-2.24;100.00;103820.41;4929300;29;20258;-43
2024/01/09 03:49:03;;;;;;;3.10;2.80;;;;;;;-2.27;100.00;103817.59;4930694;29;20191;-43
2024/01/09 03:51:29;;;;;;;3.72;3.08;;;;;;;-2.28;100.00;103807.91;4929050;29;20286;-42
2024/01/09 03:53:55;;;;;;;4.20;3.80;;;;;;;-2.23;100.00;103811.72;4928258;29;20254;-42
2024/01/09 03:56:20;;;;;;;4.53;3.05;;;;;;;-2.30;100.00;103813.06;4930814;29;20275;-40
2024/01/09 03:58:46;;;;;;;3.38;2.83;;;;;;;-2.30;100.00;103814.75;4932007;29;20175;-43
2024/01/09 04:01:12;;;;;;;3.97;3.05;;;;;;;-2.27;100.00;103804.47;4931891;29;20236;-43
2024/01/09 04:03:37;;;;;;;5.20;3.35;;;;;;;-2.31;100.00;103812.97;4932223;29;20690;-41
2024/01/09 04:06:03;;;;;;;5.30;3.20;;;;;;;-2.24;100.00;103807.28;4928846;29;20282;-42
2024/01/09 04:08:29;;;;;;;5.00;3.42;;;;;;;-2.27;100.00;103807.09;4930393;29;20249;-43
2024/01/09 04:10:54;;;;;;;3.60;3.30;;;;;;;-2.30;100.00;103806.88;4930353;29;20183;-43
2024/01/09 04:13:20;;;;;;;4.50;3.72;;;;;;;-2.34;100.00;103813.69;4932712;29;20198;-43
2024/01/09 04:15:46;;;;;;;5.05;3.05;;;;;;;-2.35;100.00;103822.34;4930187;29;20714;-44
2024/01/09 04:18:12;;;;;;;7.88;3.40;;;;;;;-2.36;100.00;103811.75;4915013;29;20191;-42
2024/01/09 04:20:39;;;;;;;3.88;3.10;;;;;;;-2.35;100.00;103809.22;4930622;29;20183;-43
2024/01/09 04:23:05;;;;;;;5.18;3.03;;;;;;;-2.37;100.00;103810.84;4934410;29;20270;-41
2024/01/09 04:25:30;;;;;;;3.80;3.25;;;;;;;-2.36;100.00;103803.88;4929370;29;20215;-42
2024/01/09 04:27:56;;;;;;;5.10;3.60;;;;;;;-2.37;100.00;103805.59;4931924;29;20316;-41
2024/01/09 04:30:21;;;;;;;4.45;3.72;;;;;;;-2.38;100.00;103810.78;4931701;29;20187;-44
2024/01/09 04:32:47;;;;;;;4.97;3.42;;;;;;;-2.43;100.00;103805.19;4935230;29;20231;-41
2024/01/09 04:35:12;;;;;;;5.07;3.63;;;;;;;-2.41;100.00;103803.59;4933959;29;20706;-45
2024/01/09 04:37:38;;;;;;;5.22;3.53;;;;;;;-2.42;100.00;103821.88;4934387;29;20179;-43
2024/01/09 04:40:04;;;;;;;4.65;3.60;;;;;;;-2.46;100.00;103812.00;4935794;29;20198;-42
2024/01/09 04:42:29;;;;;;;5.82;3.65;;;;;;;-2.43;100.00;103814.81;4935194;29;20583;-44
2024/01/09 04:44:55;;;;;;;6.10;4.00;;;;;;;-2.37;100.00;103810.84;4933263;29;20214;-41
2024/01/09 04:47:21;;;;;;;5.47;3.60;;;;;;;-2.38;100.00;103814.31;4934086;29;20191;-42
2024/01/09 04:49:46;;;;;;;5.43;3.88;;;;;;;-2.39;100.00;103809.84;4935299;29;20187;-40
2024/01/09 04:52:11;;;;;;;4.28;3.53;;;;;;;-2.34;100.00;103807.50;4935906;29;20686;-43
2024/01/09 04:54:37;;;;;;;4.95;3.35;;;;;;;-2.40;100.00;103810.66;4935139;29;20327;-43
2024/01/09 04:57:03;;;;;;;5.35;3.63;;;;;;;-2.34;100.00;103815.38;4933129;29;20254;-43
2024/01/09 04:59:29;;;;;;;7.07;3.92;;;;;;;-2.37;100.00;103804.69;4933846;29;20198;-43
2024/01/09 05:01:54;;;;;;;9.27;5.43;;;;;;;-2.34;100.00;103812.75;4935112;29;20187;-41
2024/01/09 05:04:20;;;;;;;9.55;4.18;;;;;;;-2.38;100.00;103808.16;4935434;29;20219;-41
2024/01/09 05:06:45;;;;;;;4.50;3.00;;;;;;;-2.45;100.00;103811.19;4933062;29;20207;-43
2024/01/09 05:09:11;;;;;;;4.80;3.60;;;;;;;-2.44;100.00;103811.28;4937036;29;20195;-44
2024/01/09 05:11:37;;;;;;;4.60;3.92;;;;;;;-2.47;100.00;103812.78;4933438;29;20237;-40
2024/01/09 05:14:03;;;;;;;5.30;3.72;;;;;;;-2.42;100.00;103817.53;4932254;29;20238;-43
2024/01/09 05:16:28;;;;;;;4.15;3.75;;;;;;;-2.44;100.00;103816.53;4916585;29;20188;-42
2024/01/09 05:18:54;;;;;;;3.67;2.95;;;;;;;-2.38;100.00;103813.41;4933265;29;20187;-39
2024/01/09 05:21:20;;;;;;;4.25;3.45;;;;;;;-2.42;100.00;103827.16;4936438;29;20182;-41
2024/01/09 05:23:46;;;;;;;5.80;2.97;;;;;;;-2.50;100.00;103824.00;4934999;29;20214;-40
2024/01/09 05:26:11;;;;;;;3.63;2.95;;;;;;;-2.47;100.00;103825.91;4934337;29;20211;-42
2024/01/09 05:28:37;;;;;;;5.78;3.47;;;;;;;-2.49;100.00;103815.34;4933069;29;20195;-41
2024/01/09 05:31:03;;;;;;;4.72;3.60;;;;;;;-2.71;100.00;103818.31;4934094;29;20179;-39
2024/01/09 05:33:28;;;;;;;5.45;3.75;;;;;;;-2.73;100.00;103812.97;4933157;29;20184;-42
2024/01/09 05:35:54;;;;;;;4.53;4.05;;;;;;;-2.76;100.00;103815.38;4932603;29;20612;-44
2024/01/09 05:38:19;;;;;;;4.03;3.35;;;;;;;-2.86;100.00;103822.53;4938215;29;20588;-42
2024/01/09 05:40:46;;;;;;;5.35;3.92;;;;;;;-2.96;100.00;103824.56;4932538;29;20314;-40
2024/01/09 05:43:11;;;;;;;5.68;3.28;;;;;;;-2.92;100.00;103823.97;4932846;29;20262;-40
2024/01/09 05:45:37;;;;;;;5.75;3.28;;;;;;;-2.88;100.00;103816.31;4932959;29;20825;-41
2024/01/09 05:48:03;;;;;;;4.75;3.60;;;;;;;-2.93;100.00;103832.66;4932524;29;20685;-43
2024/01/09 05:50:28;;;;;;;5.22;3.50;;;;;;;-3.04;100.00;103822.25;4934584;29;20178;-40
2024/01/09 05:52:54;;;;;;;5.32;3.55;;;;;;;-3.03;100.00;103840.72;4915568;29;20549;-40
2024/01/09 05:55:20;;;;;;;4.72;3.40;;;;;;;-3.14;100.00;103842.63;4930544;29;20638;-43
2024/01/09 05:57:46;;;;;;;4.45;3.58;;;;;;;-3.13;100.00;103843.53;4933375;29;20783;-40
2024/01/09 06:00:12;;;;;;;5.30;3.85;;;;;;;-3.13;100.00;103849.69;4932304;29;20274;-43
2024/01/09 06:02:37;;;;;;;5.55;3.40;;;;;;;-3.25;100.00;103843.63;4931878;29;20310;-41
2024/01/09 06:05:03;;;;;;;5.95;3.80;;;;;;;-3.31;100.00;103853.69;4933513;29;20210;-43
2024/01/09 06:07:29;;;;;;;5.05;3.15;;;;;;;-3.28;100.00;103839.88;4933066;29;20657;-40
2024/01/09 06:09:54;;;;;;;5.15;3.65;;;;;;;-3.37;100.00;103846.34;4918572;29;20187;-42
2024/01/09 06:12:20;;;;;;;4.78;3.22;;;;;;;-3.31;100.00;103841.50;4916430;29;20186;-40
2024/01/09 06:14:45;;;;;;;6.32;3.55;;;;;;;-3.40;100.00;103848.75;4932213;29;20211;-43
2024/01/09 06:17:12;;;;;;;4.75;3.60;;;;;;;-3.47;100.00;103849.13;4936248;29;20191;-43
2024/01/09 06:19:37;;;;;;;5.40;3.40;;;;;;;-3.40;100.00;103848.75;4932899;29;20187;-42
2024/01/09 06:22:03;;;;;;;3.65;3.35;;;;;;;-3.38;100.00;103847.13;4932718;29;20271;-43
2024/01/09 06:24:28;;;;;;;3.97;3.17;;;;;;;-3.44;100.00;103854.56;4933578;29;20201;-40
2024/01/09 06:26:54;;;;;;;5.72;3.50;;;;;;;-3.47;100.00;103841.28;4932659;29;20532;-43
2024/01/09 06:29:19;;;;;;;3.97;3.45;;;;;;;-3.51;100.00;103852.34;4932094;29;20200;-41
2024/01/09 06:31:45;;;;;;;4.25;3.35;;;;;;;-3.52;100.00;103848.81;4934103;29;20195;-42
2024/01/09 06:34:10;;;;;;;5.28;3.40;;;;;;;-3.47;100.00;103854.38;4932619;29;20209;-41
2024/01/09 06:36:36;;;;;;;6.20;3.55;;;;;;;-3.60;100.00;103849.09;4932619;29;20206;-39
2024/01/09 06:39:01;;;;;;;4.95;3.55;;;;;;;-3.56;100.00;103845.91;4917615;29;20300;-41
2024/01/09 06:41:27;;;;;;;6.80;4.07;;;;;;;-3.60;100.00;103855.25;4932964;29;20194;-42
2024/01/09 06:43:53;;;;;;;5.93;4.00;;;;;;;-3.62;100.00;103862.09;4931668;29;20191;-40
2024/01/09 06:46:18;;;;;;;6.78;4.53;;;;;;;-3.69;100.00;103853.72;4931072;29;20207;-44
2024/01/09 06:48:44;;;;;;;4.43;4.00;;;;;;;-3.78;100.00;103847.03;4930864;29;20191;-44
2024/01/09 06:51:12;;;;;;;5.85;3.90;;;;;;;-3.75;100.00;103855.09;4931599;29;20191;-44
2024/01/09 06:53:37;;;;;;;5.82;3.78;;;;;;;-3.79;100.00;103853.06;4928219;29;20312;-45
2024/01/09 06:56:04;;;;;;;6.60;4.35;;;;;;;-3.81;100.00;103859.00;4930306;29;20581;-44
2024/01/09 06:58:30;;;;;;;5.13;4.00;;;;;;;-3.91;100.00;103857.47;4932850;29;20210;-43
2024/01/09 07:00:55;;;;;;;6.32;4.00;;;;;;;-3.78;100.00;103859.22;4932178;29;20269;-45
2024/01/09 07:03:21;;;;;;;5.15;4.40;;;;;;;-3.79;100.00;103842.56;4929312;29;20184;-43
2024/01/09 07:05:46;;;;;;;6.93;4.53;;;;;;;-3.78;100.00;103852.28;4930779;29;20242;-44
2024/01/09 07:08:12;;;;;;;5.72;4.70;;;;;;;-3.75;100.00;103846.34;4931456;29;20284;-43
2024/01/09 07:10:37;;;;;;;6.45;5.43;;;;;;;-3.83;100.00;103856.25;4931320;29;20714;-43
2024/01/09 07:13:03;;;;;;;5.05;4.45;;;;;;;-3.81;100.00;103851.13;4914416;29;20295;-43
2024/01/09 07:15:28;;;;;;;6.07;4.88;;;;;;;-3.78;100.00;103860.13;4925647;29;20191;-45
2024/01/09 07:17:54;;;;;;;6.75;4.82;;;;;;;-3.85;100.00;103854.34;4930020;29;20179;-46
2024/01/09 07:20:20;;;;;;;6.18;5.20;;;;;;;-3.95;100.00;103860.66;4929461;29;20195;-44
2024/01/09 07:22:45;;;;;;;9.68;5.40;;;;;;;-3.96;100.00;103869.31;4929437;29;20180;-44
2024/01/09 07:25:11;;;;;;;6.28;5.22;;;;;;;-3.92;100.00;103865.19;4930542;29;20265;-40
2024/01/09 07:27:36;;;;;;;5.93;4.93;;;;;;;-3.89;100.00;103862.78;4922955;29;20194;-41
2024/01/09 07:30:03;;;;;;;6.38;5.07;;;;;;;-4.09;100.00;103858.78;4935070;29;20188;-45
2024/01/09 07:32:28;;;;;;;5.28;4.60;;;;;;;-4.03;100.00;103862.72;4929501;29;20183;-45
2024/01/09 07:34:54;;;;;;;5.57;4.97;;;;;;;-4.08;100.00;103866.75;4932039;29;20225;-43
2024/01/09 07:37:19;;;;;;;11.65;4.90;;;;;;;-4.16;100.00;103871.41;4932313;29;20654;-43
2024/01/09 07:39:45;;;;;;;7.70;4.68;;;;;;;-4.22;100.00;103859.59;4930505;29;20191;-40
2024/01/09 07:42:13;;;;;;;6.25;4.57;;;;;;;-4.27;100.00;103867.13;4930043;29;20203;-42
2024/01/09 07:44:39;;;;;;;6.80;4.50;;;;;;;-4.21;100.00;103857.09;4931616;29;20199;-42
2024/01/09 07:47:05;;;;;;;6.35;4.38;;;;;;;-4.18;100.00;103865.16;4930272;29;20211;-41
2024/01/09 07:49:30;;;;;;;8.65;5.07;;;;;;;-4.32;100.00;103863.28;4933239;29;20175;-41
2024/01/09 07:51:56;;;;;;;5.70;4.55;;;;;;;-4.17;100.00;103858.25;4932964;29;20183;-44
2024/01/09 07:54:21;;;;;;;5.82;4.15;;;;;;;-4.19;100.00;103863.38;4932603;29;20199;-40
2024/01/09 07:56:47;;;;;;;5.68;3.97;;;;;;;-4.20;100.00;103858.94;4932893;29;20164;-43
2024/01/09 07:59:12;;;;;;;7.13;4.30;;;;;;;-4.20;100.00;103868.47;4933421;29;20226;-42
2024/01/09 08:01:38;;;;;;;5.15;4.18;;;;;;;-4.22;100.00;103870.06;4932618;29;20247;-43
2024/01/09 08:04:06;;;;;;;8.90;5.18;;;;;;;-4.51;100.00;103865.38;4928851;29;20408;-44
2024/01/09 08:06:32;;;;;;;7.55;5.18;;;;;;;-4.49;100.00;103858.53;4934087;28;20741;-43
2024/01/09 08:08:57;;;;;;;6.07;4.22;;;;;;;-4.49;100.00;103871.63;4934285;29;20254;-44
2024/01/09 08:11:23;;;;;;;5.05;4.40;;;;;;;-4.39;100.00;103871.50;4934966;29;20191;-43
2024/01/09 08:13:48;;;;;;;4.25;3.85;;;;;;;-4.33;100.00;103869.31;4933439;29;20206;-42
2024/01/09 08:16:13;;;;;;;8.93;4.70;;;;;;;-4.28;100.00;103867.03;4931817;29;20605;-45
2024/01/09 08:18:39;;;;;;;6.20;4.80;;;;;;;-4.40;100.00;103861.81;4935304;29;20182;-43
2024/01/09 08:21:05;;;;;;;6.10;4.53;;;;;;;-4.62;100.00;103865.50;4934666;29;20183;-41
2024/01/09 08:23:31;;;;;;;5.68;4.55;;;;;;;-4.66;100.00;103865.16;4938614;28;20187;-40
2024/01/09 08:25:56;;;;;;;5.15;4.32;;;;;;;-4.57;100.00;103871.06;4940931;29;20206;-44
2024/01/09 08:28:22;;;;;;;7.13;4.90;;;;;;;-4.45;100.00;103876.28;4934788;29;20215;-45
2024/01/09 08:30:47;;;;;;;7.00;5.47;;;;;;;-4.42;100.00;103873.88;4932954;29;20192;-43
2024/01/09 08:33:13;;;;;;;7.55;4.85;;;;;;;-4.39;100.00;103881.97;4934577;29;20195;-43
2024/01/09 08:35:39;;;;;;;5.22;4.68;;;;;;;-4.29;100.00;103879.19;4934108;29;20199;-41
2024/01/09 08:38:05;;;;;;;7.50;5.40;;;;;;;-4.20;100.00;103866.78;4937150;29;20216;-41
2024/01/09 08:40:30;;;;;;;11.95;6.75;;;;;;;-4.25;100.00;103880.34;4936430;29;20179;-41
2024/01/09 08:42:56;;;;;;;8.25;6.40;;;;;;;-4.11;100.00;103866.53;4933982;29;20183;-47
2024/01/09 08:45:21;;;;;;;8.27;5.95;;;;;;;-3.91;100.00;103874.88;4932440;29;20242;-47
2024/01/09 08:47:47;;;;;;;9.02;7.20;;;;;;;-3.74;100.00;103880.50;4933969;29;20554;-47
2024/01/09 08:50:13;;;;;;;10.40;7.60;;;;;;;-3.67;100.00;103873.97;4932033;29;20286;-48
2024/01/09 08:52:38;;;;;;;10.40;7.22;;;;;;;-3.65;100.00;103877.63;4933009;29;20190;-47
2024/01/09 08:55:04;;;;;;;10.80;6.78;;;;;;;-3.53;100.00;103877.53;4931598;29;20214;-47
2024/01/09 08:57:30;;;;;;;12.13;8.43;;;;;;;-3.58;100.00;103878.94;4933531;29;20215;-46
2024/01/09 08:59:58;;;;;;;13.27;8.82;;;;;;;-3.89;100.00;103884.69;4932992;29;20176;-44
2024/01/09 09:02:24;;;;;;;13.68;9.38;;;;;;;-3.81;100.00;103886.09;4932900;29;20190;-47
2024/01/09 09:04:51;;;;;;;16.75;8.88;;;;;;;-3.65;100.00;103881.91;4933240;29;20939;-46
2024/01/09 09:07:18;;;;;;;15.52;10.05;;;;;;;-3.87;100.00;103883.06;4932488;29;20760;-44
2024/01/09 09:09:44;;;;;;;16.63;9.52;;;;;;;-3.68;100.00;103881.72;4931745;29;20202;-46
2024/01/09 09:12:11;;;;;;;15.60;9.13;;;;;;;-3.58;100.00;103881.56;4932380;29;20717;-45
2024/01/09 09:14:36;;;;;;;15.32;9.73;;;;;;;-3.50;100.00;103882.06;4932362;29;20222;-45
2024/01/09 09:17:02;;;;;;;16.17;9.93;;;;;;;-3.53;100.00;103885.41;4933336;29;20519;-45
2024/01/09 09:19:30;;;;;;;13.27;9.25;;;;;;;-3.43;100.00;103884.31;4930722;29;20274;-44
2024/01/09 09:21:55;;;;;;;16.25;10.70;;;;;;;-3.46;100.00;103882.38;4932103;29;20270;-45
2024/01/09 09:24:21;;;;;;;16.48;11.30;;;;;;;-3.38;100.00;103880.31;4932418;29;20282;-45
2024/01/09 09:26:46;;;;;;;16.90;10.73;;;;;;;-3.32;100.00;103893.84;4934611;29;20211;-45
2024/01/09 09:29:13;;;;;;;16.77;10.88;;;;;;;-3.17;100.00;103884.38;4932080;29;20651;-44
2024/01/09 09:31:38;;;;;;;16.15;10.20;;;;;;;-2.92;100.00;103875.53;4933205;29;20709;-43
2024/01/09 09:34:04;;;;;;;13.82;9.25;;;;;;;-2.96;100.00;103886.63;4932397;29;20282;-43
2024/01/09 09:36:29;;;;;;;13.23;9.48;;;;;;;-2.93;100.00;103884.19;4932343;29;20609;-43
2024/01/09 09:38:55;;;;;;;10.85;8.15;;;;;;;-2.77;100.00;103870.38;4933059;29;20196;-42
2024/01/09 09:41:20;;;;;;;12.27;7.78;;;;;;;-2.58;100.00;103888.22;4933070;29;20195;-44
2024/01/09 09:43:54;;;;;;;11.07;7.57;;;;;;;-2.51;100.00;103878.25;4934321;29;20286;-39
2024/01/09 09:46:26;;;;;;;9.93;7.15;;;;;;;-2.42;100.00;103891.06;4934302;29;20207;-41
2024/01/09 09:48:53;;;;;;;9.07;6.50;;;;;;;-2.32;100.00;103885.59;4932775;29;20262;-42
2024/01/09 09:51:20;;;;;;;9.63;6.93;;;;;;;-2.35;100.00;103884.47;4916735;29;21054;-44
2024/01/09 09:53:46;;;;;;;7.63;6.05;;;;;;;-2.38;100.00;103886.91;4929002;29;20213;-45
2024/01/09 09:56:15;;;;;;;7.28;6.25;;;;;;;-2.40;100.00;103883.28;4929617;29;20243;-45
2024/01/09 09:58:41;;;;;;;10.75;6.18;;;;;;;-2.34;100.00;103879.34;4931660;29;20199;-42
2024/01/09 10:01:12;;;;;;;7.63;6.63;;;;;;;-2.17;100.00;103869.88;4931337;29;20686;-42
2024/01/09 10:04:03;;;;;;;7.70;5.68;;;;;;;-2.09;100.00;103876.53;4929740;29;20203;-43
2024/01/09 10:06:31;;;;;;;7.93;6.60;;;;;;;-1.96;100.00;103874.69;4929753;29;20291;-43
2024/01/09 10:09:01;;;;;;;8.77;7.38;;;;;;;-2.06;100.00;103862.66;4932118;29;20689;-45
2024/01/09 10:11:28;;;;;;;8.80;7.15;;;;;;;-1.70;100.00;103852.63;4912355;29;20243;-45
2024/01/09 10:13:55;;;;;;;7.80;7.05;;;;;;;-1.39;100.00;103863.28;4931602;29;20306;-43
2024/01/09 10:16:20;;;;;;;9.25;8.20;;;;;;;-1.41;100.00;103856.13;4932075;29;20254;-44
2024/01/09 10:18:46;;;;;;;10.00;8.90;;;;;;;-1.38;100.00;103851.94;4931731;29;20179;-44
2024/01/09 10:21:11;;;;;;;10.45;8.35;;;;;;;-1.40;100.00;103845.69;4931239;29;20569;-44
2024/01/09 10:23:39;;;;;;;9.13;8.23;;;;;;;-1.14;100.00;103851.56;4931727;29;20219;-42
2024/01/09 10:26:11;;;;;;;8.68;7.78;;;;;;;-1.22;100.00;103839.69;4931430;29;20201;-44
2024/01/09 10:28:37;;;;;;;11.52;8.70;;;;;;;-1.25;100.00;103838.72;4930270;29;20195;-44
2024/01/09 10:31:06;;;;;;;8.82;7.90;;;;;;;-1.47;100.00;103840.88;4931352;29;20186;-44
2024/01/09 10:33:32;;;;;;;9.80;8.02;;;;;;;-1.23;100.00;103843.16;4931860;29;20674;-43
2024/01/09 10:35:58;;;;;;;9.80;8.52;;;;;;;-1.01;100.00;103838.31;4930795;29;20175;-44
2024/01/09 10:38:25;;;;;;;9.75;8.63;;;;;;;-1.10;100.00;103835.16;4930956;29;20282;-44
2024/01/09 10:40:55;;;;;;;10.98;8.73;;;;;;;-1.00;100.00;103832.25;4931514;29;20199;-44
2024/01/09 10:43:24;;;;;;;9.52;7.07;;;;;;;-1.24;100.00;103815.94;4931801;29;20225;-43
2024/01/09 10:45:52;;;;;;;11.18;6.25;;;;;;;-1.17;100.00;103823.38;4930606;29;20675;-44
2024/01/09 10:48:21;;;;;;;5.75;5.15;;;;;;;-1.31;100.00;103814.69;4930664;29;20186;-45
2024/01/09 10:50:50;;;;;;;5.95;5.38;;;;;;;-1.13;100.00;103814.84;4931162;29;20570;-44
2024/01/09 10:53:16;;;;;;;5.45;4.95;;;;;;;-1.51;100.00;103810.88;4930713;29;20555;-44
2024/01/09 10:55:43;;;;;;;5.50;4.90;;;;;;;-1.39;100.00;103813.31;4930362;29;20612;-44
2024/01/09 10:58:10;;;;;;;6.85;5.20;;;;;;;-1.47;100.00;103812.84;4930039;29;20191;-43
2024/01/09 11:00:37;;;;;;;7.18;5.65;;;;;;;-1.42;100.00;103815.78;4913508;29;20523;-45
2024/01/09 11:03:03;;;;;;;8.25;5.95;;;;;;;-1.56;100.00;103804.41;4930002;29;21064;-45
2024/01/09 11:05:28;;;;;;;6.57;5.53;;;;;;;-1.39;100.00;103802.78;4930462;29;20239;-44
2024/01/09 11:07:58;;;;;;;7.38;6.00;;;;;;;-1.52;100.00;103797.63;4930559;29;20606;-43
2024/01/09 11:10:25;;;;;;;7.78;6.07;;;;;;;-1.36;100.00;103778.38;4931252;29;20229;-43